sensor_id;sensor_type;location;lat;lon;timestamp;P1;durP1;ratioP1;P2;durP2;ratioP2
76856;SDS011;69705;44.686;37.628;2023-07-02T00:00:03;10.98;;;4.03;;
76856;SDS011;69705;44.686;37.628;2023-07-02T00:02:35;8.17;;;4.10;;
76856;SDS011;69705;44.686;37.628;2023-07-02T00:05:02;8.35;;;4.05;;
76856;SDS011;69705;44.686;37.628;2023-07-02T00:07:29;8.23;;;3.90;;
76856;SDS011;69705;44.686;37.628;2023-07-02T00:09:55;7.75;;;3.92;;
76856;SDS011;69705;44.686;37.628;2023-07-02T00:12:22;8.07;;;3.97;;
76856;SDS011;69705;44.686;37.628;2023-07-02T00:14:48;9.83;;;4.30;;
76856;SDS011;69705;44.686;37.628;2023-07-02T00:17:19;7.93;;;3.80;;
76856;SDS011;69705;44.686;37.628;2023-07-02T00:19:46;8.63;;;3.70;;
76856;SDS011;69705;44.686;37.628;2023-07-02T00:22:13;8.15;;;3.80;;
76856;SDS011;69705;44.686;37.628;2023-07-02T00:24:41;7.60;;;3.78;;
76856;SDS011;69705;44.686;37.628;2023-07-02T00:27:08;8.67;;;3.70;;
76856;SDS011;69705;44.686;37.628;2023-07-02T00:29:35;8.60;;;3.63;;
76856;SDS011;69705;44.686;37.628;2023-07-02T00:32:01;8.52;;;3.97;;
76856;SDS011;69705;44.686;37.628;2023-07-02T00:34:28;7.97;;;3.70;;
76856;SDS011;69705;44.686;37.628;2023-07-02T00:37:00;9.40;;;3.95;;
76856;SDS011;69705;44.686;37.628;2023-07-02T00:39:27;9.53;;;3.97;;
76856;SDS011;69705;44.686;37.628;2023-07-02T00:41:53;10.07;;;3.95;;
76856;SDS011;69705;44.686;37.628;2023-07-02T00:44:20;8.23;;;4.10;;
76856;SDS011;69705;44.686;37.628;2023-07-02T00:46:46;8.80;;;4.10;;
76856;SDS011;69705;44.686;37.628;2023-07-02T00:49:13;9.32;;;4.10;;
76856;SDS011;69705;44.686;37.628;2023-07-02T00:51:40;8.80;;;4.20;;
76856;SDS011;69705;44.686;37.628;2023-07-02T00:54:07;9.65;;;4.10;;
76856;SDS011;69705;44.686;37.628;2023-07-02T00:56:34;11.05;;;4.72;;
76856;SDS011;69705;44.686;37.628;2023-07-02T00:59:00;11.57;;;4.35;;
76856;SDS011;69705;44.686;37.628;2023-07-02T01:01:27;13.75;;;5.25;;
76856;SDS011;69705;44.686;37.628;2023-07-02T01:06:32;12.48;;;4.35;;
76856;SDS011;69705;44.686;37.628;2023-07-02T01:09:04;11.95;;;4.57;;
76856;SDS011;69705;44.686;37.628;2023-07-02T01:11:31;10.00;;;4.57;;
76856;SDS011;69705;44.686;37.628;2023-07-02T01:14:04;13.88;;;4.30;;
76856;SDS011;69705;44.686;37.628;2023-07-02T01:16:35;9.60;;;4.13;;
76856;SDS011;69705;44.686;37.628;2023-07-02T01:19:04;11.27;;;4.63;;
76856;SDS011;69705;44.686;37.628;2023-07-02T01:21:36;9.45;;;4.35;;
76856;SDS011;69705;44.686;37.628;2023-07-02T01:24:03;12.20;;;4.78;;
76856;SDS011;69705;44.686;37.628;2023-07-02T01:26:30;9.80;;;4.90;;
76856;SDS011;69705;44.686;37.628;2023-07-02T01:29:13;9.10;;;4.10;;
76856;SDS011;69705;44.686;37.628;2023-07-02T01:31:41;8.98;;;4.25;;
76856;SDS011;69705;44.686;37.628;2023-07-02T01:34:08;10.52;;;4.43;;
76856;SDS011;69705;44.686;37.628;2023-07-02T01:36:40;8.93;;;4.18;;
76856;SDS011;69705;44.686;37.628;2023-07-02T01:39:07;8.25;;;3.80;;
76856;SDS011;69705;44.686;37.628;2023-07-02T01:41:41;8.60;;;4.13;;
76856;SDS011;69705;44.686;37.628;2023-07-02T01:44:10;8.18;;;4.00;;
76856;SDS011;69705;44.686;37.628;2023-07-02T01:46:37;8.50;;;3.90;;
76856;SDS011;69705;44.686;37.628;2023-07-02T01:49:05;9.23;;;3.83;;
76856;SDS011;69705;44.686;37.628;2023-07-02T01:51:32;9.00;;;3.95;;
76856;SDS011;69705;44.686;37.628;2023-07-02T01:54:00;7.30;;;3.73;;
76856;SDS011;69705;44.686;37.628;2023-07-02T01:56:27;7.63;;;3.80;;
76856;SDS011;69705;44.686;37.628;2023-07-02T01:58:54;7.45;;;3.80;;
76856;SDS011;69705;44.686;37.628;2023-07-02T02:01:20;7.18;;;3.60;;
76856;SDS011;69705;44.686;37.628;2023-07-02T02:03:47;8.70;;;3.90;;
76856;SDS011;69705;44.686;37.628;2023-07-02T02:06:14;7.93;;;3.70;;
76856;SDS011;69705;44.686;37.628;2023-07-02T02:08:40;10.10;;;3.88;;
76856;SDS011;69705;44.686;37.628;2023-07-02T02:11:07;7.65;;;3.70;;
76856;SDS011;69705;44.686;37.628;2023-07-02T02:13:34;8.75;;;4.20;;
76856;SDS011;69705;44.686;37.628;2023-07-02T02:16:00;9.73;;;4.07;;
76856;SDS011;69705;44.686;37.628;2023-07-02T02:18:27;7.53;;;3.80;;
76856;SDS011;69705;44.686;37.628;2023-07-02T02:20:53;10.45;;;4.10;;
76856;SDS011;69705;44.686;37.628;2023-07-02T02:23:20;8.68;;;3.95;;
76856;SDS011;69705;44.686;37.628;2023-07-02T02:25:46;8.90;;;4.15;;
76856;SDS011;69705;44.686;37.628;2023-07-02T02:28:13;10.00;;;4.47;;
76856;SDS011;69705;44.686;37.628;2023-07-02T02:30:40;9.73;;;4.00;;
76856;SDS011;69705;44.686;37.628;2023-07-02T02:33:06;10.05;;;3.95;;
76856;SDS011;69705;44.686;37.628;2023-07-02T02:35:33;8.13;;;4.18;;
76856;SDS011;69705;44.686;37.628;2023-07-02T02:38:02;8.00;;;3.90;;
76856;SDS011;69705;44.686;37.628;2023-07-02T02:40:30;10.00;;;3.92;;
76856;SDS011;69705;44.686;37.628;2023-07-02T02:42:56;7.37;;;3.60;;
76856;SDS011;69705;44.686;37.628;2023-07-02T02:45:23;8.95;;;4.00;;
76856;SDS011;69705;44.686;37.628;2023-07-02T02:47:50;10.38;;;4.38;;
76856;SDS011;69705;44.686;37.628;2023-07-02T02:50:16;7.35;;;3.88;;
76856;SDS011;69705;44.686;37.628;2023-07-02T02:52:43;10.00;;;4.10;;
76856;SDS011;69705;44.686;37.628;2023-07-02T02:55:09;9.20;;;4.53;;
76856;SDS011;69705;44.686;37.628;2023-07-02T02:57:38;9.07;;;4.03;;
76856;SDS011;69705;44.686;37.628;2023-07-02T03:00:05;8.80;;;4.15;;
76856;SDS011;69705;44.686;37.628;2023-07-02T03:02:33;8.52;;;3.97;;
76856;SDS011;69705;44.686;37.628;2023-07-02T03:04:59;7.72;;;4.20;;
76856;SDS011;69705;44.686;37.628;2023-07-02T03:07:29;8.90;;;4.20;;
76856;SDS011;69705;44.686;37.628;2023-07-02T03:09:57;7.18;;;4.32;;
76856;SDS011;69705;44.686;37.628;2023-07-02T03:12:27;9.95;;;4.50;;
76856;SDS011;69705;44.686;37.628;2023-07-02T03:14:54;15.05;;;4.50;;
76856;SDS011;69705;44.686;37.628;2023-07-02T03:17:21;7.18;;;4.10;;
76856;SDS011;69705;44.686;37.628;2023-07-02T03:19:48;8.87;;;4.10;;
76856;SDS011;69705;44.686;37.628;2023-07-02T03:22:14;9.95;;;4.35;;
76856;SDS011;69705;44.686;37.628;2023-07-02T03:24:41;7.28;;;3.90;;
76856;SDS011;69705;44.686;37.628;2023-07-02T03:27:07;8.38;;;4.20;;
76856;SDS011;69705;44.686;37.628;2023-07-02T03:29:34;8.30;;;4.40;;
76856;SDS011;69705;44.686;37.628;2023-07-02T03:32:04;10.03;;;3.90;;
76856;SDS011;69705;44.686;37.628;2023-07-02T03:34:31;7.85;;;4.10;;
76856;SDS011;69705;44.686;37.628;2023-07-02T03:36:57;8.82;;;4.43;;
76856;SDS011;69705;44.686;37.628;2023-07-02T03:39:24;8.70;;;3.83;;
76856;SDS011;69705;44.686;37.628;2023-07-02T03:41:50;7.95;;;3.80;;
76856;SDS011;69705;44.686;37.628;2023-07-02T03:44:17;7.67;;;4.20;;
76856;SDS011;69705;44.686;37.628;2023-07-02T03:46:45;6.95;;;3.75;;
76856;SDS011;69705;44.686;37.628;2023-07-02T03:49:12;11.48;;;4.30;;
76856;SDS011;69705;44.686;37.628;2023-07-02T03:51:43;10.38;;;3.95;;
76856;SDS011;69705;44.686;37.628;2023-07-02T03:54:10;9.60;;;3.97;;
76856;SDS011;69705;44.686;37.628;2023-07-02T03:56:36;8.90;;;3.97;;
76856;SDS011;69705;44.686;37.628;2023-07-02T03:59:03;9.77;;;3.80;;
76856;SDS011;69705;44.686;37.628;2023-07-02T04:01:29;9.07;;;3.40;;
76856;SDS011;69705;44.686;37.628;2023-07-02T04:03:56;8.57;;;3.50;;
76856;SDS011;69705;44.686;37.628;2023-07-02T04:06:22;8.32;;;3.30;;
76856;SDS011;69705;44.686;37.628;2023-07-02T04:08:49;8.53;;;3.37;;
76856;SDS011;69705;44.686;37.628;2023-07-02T04:11:16;8.48;;;3.17;;
76856;SDS011;69705;44.686;37.628;2023-07-02T04:13:42;8.80;;;3.30;;
76856;SDS011;69705;44.686;37.628;2023-07-02T04:16:09;9.48;;;3.13;;
76856;SDS011;69705;44.686;37.628;2023-07-02T04:18:36;9.48;;;3.10;;
76856;SDS011;69705;44.686;37.628;2023-07-02T04:21:02;8.97;;;3.20;;
76856;SDS011;69705;44.686;37.628;2023-07-02T04:23:29;11.15;;;3.10;;
76856;SDS011;69705;44.686;37.628;2023-07-02T04:25:55;9.35;;;3.33;;
76856;SDS011;69705;44.686;37.628;2023-07-02T04:28:22;7.82;;;3.20;;
76856;SDS011;69705;44.686;37.628;2023-07-02T04:30:48;8.02;;;3.10;;
76856;SDS011;69705;44.686;37.628;2023-07-02T04:33:17;6.87;;;2.53;;
76856;SDS011;69705;44.686;37.628;2023-07-02T04:35:44;6.47;;;2.75;;
76856;SDS011;69705;44.686;37.628;2023-07-02T04:38:10;7.00;;;2.92;;
76856;SDS011;69705;44.686;37.628;2023-07-02T04:40:38;8.52;;;2.72;;
76856;SDS011;69705;44.686;37.628;2023-07-02T04:43:05;6.88;;;2.80;;
76856;SDS011;69705;44.686;37.628;2023-07-02T04:45:32;9.67;;;3.00;;
76856;SDS011;69705;44.686;37.628;2023-07-02T04:48:03;10.68;;;3.30;;
76856;SDS011;69705;44.686;37.628;2023-07-02T04:50:29;6.60;;;3.03;;
76856;SDS011;69705;44.686;37.628;2023-07-02T04:52:56;10.60;;;3.00;;
76856;SDS011;69705;44.686;37.628;2023-07-02T04:55:23;6.40;;;2.80;;
76856;SDS011;69705;44.686;37.628;2023-07-02T04:57:49;7.47;;;3.10;;
76856;SDS011;69705;44.686;37.628;2023-07-02T05:00:16;8.43;;;3.00;;
76856;SDS011;69705;44.686;37.628;2023-07-02T05:02:43;7.68;;;2.65;;
76856;SDS011;69705;44.686;37.628;2023-07-02T05:05:09;9.27;;;2.70;;
76856;SDS011;69705;44.686;37.628;2023-07-02T05:07:40;8.77;;;2.85;;
76856;SDS011;69705;44.686;37.628;2023-07-02T05:10:07;8.73;;;2.80;;
76856;SDS011;69705;44.686;37.628;2023-07-02T05:12:33;7.55;;;2.95;;
76856;SDS011;69705;44.686;37.628;2023-07-02T05:15:00;6.78;;;2.90;;
76856;SDS011;69705;44.686;37.628;2023-07-02T05:17:27;6.20;;;2.55;;
76856;SDS011;69705;44.686;37.628;2023-07-02T05:19:54;7.70;;;2.70;;
76856;SDS011;69705;44.686;37.628;2023-07-02T05:22:20;6.70;;;2.60;;
76856;SDS011;69705;44.686;37.628;2023-07-02T05:24:47;7.05;;;2.70;;
76856;SDS011;69705;44.686;37.628;2023-07-02T05:27:14;7.10;;;2.60;;
76856;SDS011;69705;44.686;37.628;2023-07-02T05:29:41;7.25;;;2.83;;
76856;SDS011;69705;44.686;37.628;2023-07-02T05:32:07;8.75;;;2.85;;
76856;SDS011;69705;44.686;37.628;2023-07-02T05:34:34;6.53;;;2.50;;
76856;SDS011;69705;44.686;37.628;2023-07-02T05:37:00;6.78;;;2.63;;
76856;SDS011;69705;44.686;37.628;2023-07-02T05:39:27;10.02;;;2.60;;
76856;SDS011;69705;44.686;37.628;2023-07-02T05:41:53;7.80;;;2.90;;
76856;SDS011;69705;44.686;37.628;2023-07-02T05:44:25;9.65;;;2.63;;
76856;SDS011;69705;44.686;37.628;2023-07-02T05:46:52;8.90;;;2.83;;
76856;SDS011;69705;44.686;37.628;2023-07-02T05:49:18;8.75;;;2.90;;
76856;SDS011;69705;44.686;37.628;2023-07-02T05:51:45;8.32;;;2.33;;
76856;SDS011;69705;44.686;37.628;2023-07-02T05:54:11;7.18;;;2.80;;
76856;SDS011;69705;44.686;37.628;2023-07-02T05:56:39;8.18;;;2.90;;
76856;SDS011;69705;44.686;37.628;2023-07-02T05:59:08;9.10;;;2.53;;
76856;SDS011;69705;44.686;37.628;2023-07-02T06:01:36;6.75;;;2.78;;
76856;SDS011;69705;44.686;37.628;2023-07-02T06:04:02;8.80;;;2.75;;
76856;SDS011;69705;44.686;37.628;2023-07-02T06:06:29;7.22;;;2.80;;
76856;SDS011;69705;44.686;37.628;2023-07-02T06:08:56;6.93;;;2.60;;
76856;SDS011;69705;44.686;37.628;2023-07-02T06:11:22;8.17;;;2.50;;
76856;SDS011;69705;44.686;37.628;2023-07-02T06:13:49;7.07;;;2.67;;
76856;SDS011;69705;44.686;37.628;2023-07-02T06:16:15;10.93;;;2.63;;
76856;SDS011;69705;44.686;37.628;2023-07-02T06:18:42;5.75;;;2.40;;
76856;SDS011;69705;44.686;37.628;2023-07-02T06:21:09;8.93;;;2.55;;
76856;SDS011;69705;44.686;37.628;2023-07-02T06:23:44;7.90;;;2.60;;
76856;SDS011;69705;44.686;37.628;2023-07-02T06:26:11;7.90;;;2.60;;
76856;SDS011;69705;44.686;37.628;2023-07-02T06:28:38;6.88;;;2.63;;
76856;SDS011;69705;44.686;37.628;2023-07-02T06:31:05;10.85;;;2.90;;
76856;SDS011;69705;44.686;37.628;2023-07-02T06:33:32;8.05;;;2.75;;
76856;SDS011;69705;44.686;37.628;2023-07-02T06:35:58;7.50;;;2.50;;
76856;SDS011;69705;44.686;37.628;2023-07-02T06:38:25;7.82;;;2.40;;
76856;SDS011;69705;44.686;37.628;2023-07-02T06:40:51;7.80;;;2.67;;
76856;SDS011;69705;44.686;37.628;2023-07-02T06:43:18;7.20;;;2.30;;
76856;SDS011;69705;44.686;37.628;2023-07-02T06:45:44;7.63;;;2.40;;
76856;SDS011;69705;44.686;37.628;2023-07-02T06:48:11;8.07;;;2.40;;
76856;SDS011;69705;44.686;37.628;2023-07-02T06:50:43;6.68;;;2.50;;
76856;SDS011;69705;44.686;37.628;2023-07-02T06:53:11;8.10;;;2.50;;
76856;SDS011;69705;44.686;37.628;2023-07-02T06:55:38;6.18;;;2.20;;
76856;SDS011;69705;44.686;37.628;2023-07-02T06:58:05;12.98;;;2.67;;
76856;SDS011;69705;44.686;37.628;2023-07-02T07:00:37;10.43;;;2.80;;
76856;SDS011;69705;44.686;37.628;2023-07-02T07:03:04;10.55;;;2.45;;
76856;SDS011;69705;44.686;37.628;2023-07-02T07:05:31;7.57;;;2.33;;
76856;SDS011;69705;44.686;37.628;2023-07-02T07:08:01;6.82;;;2.40;;
76856;SDS011;69705;44.686;37.628;2023-07-02T07:10:27;9.45;;;2.40;;
76856;SDS011;69705;44.686;37.628;2023-07-02T07:12:54;7.10;;;2.50;;
76856;SDS011;69705;44.686;37.628;2023-07-02T07:15:21;6.32;;;2.35;;
76856;SDS011;69705;44.686;37.628;2023-07-02T07:17:48;7.15;;;2.28;;
76856;SDS011;69705;44.686;37.628;2023-07-02T07:20:14;10.15;;;2.90;;
76856;SDS011;69705;44.686;37.628;2023-07-02T07:22:41;7.20;;;2.33;;
76856;SDS011;69705;44.686;37.628;2023-07-02T07:25:08;14.80;;;2.60;;
76856;SDS011;69705;44.686;37.628;2023-07-02T07:27:35;7.57;;;2.30;;
76856;SDS011;69705;44.686;37.628;2023-07-02T07:30:01;11.65;;;2.55;;
76856;SDS011;69705;44.686;37.628;2023-07-02T07:32:28;12.15;;;2.78;;
76856;SDS011;69705;44.686;37.628;2023-07-02T07:34:55;5.90;;;2.20;;
76856;SDS011;69705;44.686;37.628;2023-07-02T07:37:22;14.40;;;2.90;;
76856;SDS011;69705;44.686;37.628;2023-07-02T07:39:48;12.45;;;2.63;;
76856;SDS011;69705;44.686;37.628;2023-07-02T07:42:15;9.02;;;2.55;;
76856;SDS011;69705;44.686;37.628;2023-07-02T07:44:44;9.52;;;2.58;;
76856;SDS011;69705;44.686;37.628;2023-07-02T07:47:12;8.73;;;2.40;;
76856;SDS011;69705;44.686;37.628;2023-07-02T07:49:39;7.07;;;2.33;;
76856;SDS011;69705;44.686;37.628;2023-07-02T07:52:05;7.00;;;2.50;;
76856;SDS011;69705;44.686;37.628;2023-07-02T07:54:33;8.27;;;2.72;;
76856;SDS011;69705;44.686;37.628;2023-07-02T07:57:03;7.03;;;2.20;;
76856;SDS011;69705;44.686;37.628;2023-07-02T07:59:30;7.90;;;2.20;;
76856;SDS011;69705;44.686;37.628;2023-07-02T08:01:57;6.77;;;2.17;;
76856;SDS011;69705;44.686;37.628;2023-07-02T08:04:25;7.65;;;2.30;;
76856;SDS011;69705;44.686;37.628;2023-07-02T08:06:51;9.07;;;2.33;;
76856;SDS011;69705;44.686;37.628;2023-07-02T08:09:18;7.55;;;2.33;;
76856;SDS011;69705;44.686;37.628;2023-07-02T08:11:45;8.98;;;2.42;;
76856;SDS011;69705;44.686;37.628;2023-07-02T08:14:12;6.97;;;2.10;;
76856;SDS011;69705;44.686;37.628;2023-07-02T08:16:40;6.20;;;2.38;;
76856;SDS011;69705;44.686;37.628;2023-07-02T08:19:06;12.23;;;2.70;;
76856;SDS011;69705;44.686;37.628;2023-07-02T08:21:34;6.88;;;2.30;;
76856;SDS011;69705;44.686;37.628;2023-07-02T08:24:01;7.63;;;3.20;;
76856;SDS011;69705;44.686;37.628;2023-07-02T08:26:27;6.77;;;2.40;;
76856;SDS011;69705;44.686;37.628;2023-07-02T08:28:54;5.75;;;2.30;;
76856;SDS011;69705;44.686;37.628;2023-07-02T08:31:21;6.72;;;2.22;;
76856;SDS011;69705;44.686;37.628;2023-07-02T08:33:47;6.40;;;2.20;;
76856;SDS011;69705;44.686;37.628;2023-07-02T08:36:14;6.90;;;2.47;;
76856;SDS011;69705;44.686;37.628;2023-07-02T08:38:40;8.47;;;2.47;;
76856;SDS011;69705;44.686;37.628;2023-07-02T08:41:07;6.30;;;2.20;;
76856;SDS011;69705;44.686;37.628;2023-07-02T08:43:35;6.80;;;2.30;;
76856;SDS011;69705;44.686;37.628;2023-07-02T08:46:02;8.07;;;2.30;;
76856;SDS011;69705;44.686;37.628;2023-07-02T08:48:28;8.35;;;2.42;;
76856;SDS011;69705;44.686;37.628;2023-07-02T08:50:55;7.30;;;2.20;;
76856;SDS011;69705;44.686;37.628;2023-07-02T08:53:22;5.47;;;2.03;;
76856;SDS011;69705;44.686;37.628;2023-07-02T08:55:55;6.93;;;2.30;;
76856;SDS011;69705;44.686;37.628;2023-07-02T08:58:22;7.30;;;2.33;;
76856;SDS011;69705;44.686;37.628;2023-07-02T09:03:35;5.70;;;2.20;;
76856;SDS011;69705;44.686;37.628;2023-07-02T09:06:06;8.45;;;2.45;;
76856;SDS011;69705;44.686;37.628;2023-07-02T09:08:34;11.20;;;3.20;;
76856;SDS011;69705;44.686;37.628;2023-07-02T09:11:11;8.23;;;2.70;;
76856;SDS011;69705;44.686;37.628;2023-07-02T09:13:49;7.15;;;2.38;;
76856;SDS011;69705;44.686;37.628;2023-07-02T09:16:29;11.57;;;2.30;;
76856;SDS011;69705;44.686;37.628;2023-07-02T09:19:06;10.98;;;3.25;;
76856;SDS011;69705;44.686;37.628;2023-07-02T09:26:50;6.50;;;2.30;;
76856;SDS011;69705;44.686;37.628;2023-07-02T09:29:23;6.20;;;2.00;;
76856;SDS011;69705;44.686;37.628;2023-07-02T09:31:52;6.45;;;2.20;;
76856;SDS011;69705;44.686;37.628;2023-07-02T09:34:19;6.05;;;2.40;;
76856;SDS011;69705;44.686;37.628;2023-07-02T09:36:46;7.90;;;2.05;;
76856;SDS011;69705;44.686;37.628;2023-07-02T09:39:13;6.53;;;2.30;;
76856;SDS011;69705;44.686;37.628;2023-07-02T09:41:45;7.33;;;2.30;;
76856;SDS011;69705;44.686;37.628;2023-07-02T09:44:15;7.20;;;2.47;;
76856;SDS011;69705;44.686;37.628;2023-07-02T09:46:45;6.32;;;2.22;;
76856;SDS011;69705;44.686;37.628;2023-07-02T09:49:39;6.95;;;2.03;;
76856;SDS011;69705;44.686;37.628;2023-07-02T09:52:09;5.72;;;2.03;;
76856;SDS011;69705;44.686;37.628;2023-07-02T09:54:37;8.20;;;2.27;;
76856;SDS011;69705;44.686;37.628;2023-07-02T09:57:04;6.03;;;2.10;;
76856;SDS011;69705;44.686;37.628;2023-07-02T09:59:34;6.60;;;2.10;;
76856;SDS011;69705;44.686;37.628;2023-07-02T10:02:01;8.45;;;2.40;;
76856;SDS011;69705;44.686;37.628;2023-07-02T10:04:38;6.35;;;2.20;;
76856;SDS011;69705;44.686;37.628;2023-07-02T10:07:09;7.83;;;2.20;;
76856;SDS011;69705;44.686;37.628;2023-07-02T10:09:43;6.63;;;2.20;;
76856;SDS011;69705;44.686;37.628;2023-07-02T10:12:23;7.78;;;2.38;;
76856;SDS011;69705;44.686;37.628;2023-07-02T10:14:52;6.63;;;2.03;;
76856;SDS011;69705;44.686;37.628;2023-07-02T10:17:33;4.90;;;2.00;;
76856;SDS011;69705;44.686;37.628;2023-07-02T10:20:01;8.97;;;2.00;;
76856;SDS011;69705;44.686;37.628;2023-07-02T10:22:46;7.93;;;2.30;;
76856;SDS011;69705;44.686;37.628;2023-07-02T10:25:26;8.32;;;2.30;;
76856;SDS011;69705;44.686;37.628;2023-07-02T10:28:19;8.02;;;2.17;;
76856;SDS011;69705;44.686;37.628;2023-07-02T10:30:52;6.35;;;2.10;;
76856;SDS011;69705;44.686;37.628;2023-07-02T10:33:19;6.10;;;2.10;;
76856;SDS011;69705;44.686;37.628;2023-07-02T10:35:47;5.75;;;2.20;;
76856;SDS011;69705;44.686;37.628;2023-07-02T10:38:22;6.53;;;2.10;;
76856;SDS011;69705;44.686;37.628;2023-07-02T10:43:26;5.75;;;2.30;;
76856;SDS011;69705;44.686;37.628;2023-07-02T10:45:58;5.47;;;2.10;;
76856;SDS011;69705;44.686;37.628;2023-07-02T10:48:26;6.65;;;2.85;;
76856;SDS011;69705;44.686;37.628;2023-07-02T10:50:53;8.60;;;2.25;;
76856;SDS011;69705;44.686;37.628;2023-07-02T10:53:20;5.88;;;2.03;;
76856;SDS011;69705;44.686;37.628;2023-07-02T10:55:55;7.28;;;2.20;;
76856;SDS011;69705;44.686;37.628;2023-07-02T10:58:23;5.73;;;1.97;;
76856;SDS011;69705;44.686;37.628;2023-07-02T11:00:50;6.60;;;2.10;;
76856;SDS011;69705;44.686;37.628;2023-07-02T11:03:18;6.43;;;2.08;;
76856;SDS011;69705;44.686;37.628;2023-07-02T11:05:45;6.80;;;2.00;;
76856;SDS011;69705;44.686;37.628;2023-07-02T11:08:13;6.32;;;2.10;;
76856;SDS011;69705;44.686;37.628;2023-07-02T11:10:39;5.63;;;2.00;;
76856;SDS011;69705;44.686;37.628;2023-07-02T11:13:13;5.93;;;2.30;;
76856;SDS011;69705;44.686;37.628;2023-07-02T11:15:42;7.90;;;2.20;;
76856;SDS011;69705;44.686;37.628;2023-07-02T11:18:10;6.55;;;2.00;;
76856;SDS011;69705;44.686;37.628;2023-07-02T11:20:46;7.15;;;2.10;;
76856;SDS011;69705;44.686;37.628;2023-07-02T11:23:22;6.50;;;1.83;;
76856;SDS011;69705;44.686;37.628;2023-07-02T11:25:57;5.78;;;2.10;;
76856;SDS011;69705;44.686;37.628;2023-07-02T11:28:24;5.90;;;2.08;;
76856;SDS011;69705;44.686;37.628;2023-07-02T11:30:52;6.63;;;2.10;;
76856;SDS011;69705;44.686;37.628;2023-07-02T11:33:20;6.22;;;2.20;;
76856;SDS011;69705;44.686;37.628;2023-07-02T11:35:59;6.20;;;2.13;;
76856;SDS011;69705;44.686;37.628;2023-07-02T11:38:26;6.78;;;2.15;;
76856;SDS011;69705;44.686;37.628;2023-07-02T11:40:52;5.70;;;2.20;;
76856;SDS011;69705;44.686;37.628;2023-07-02T11:43:19;5.40;;;2.20;;
76856;SDS011;69705;44.686;37.628;2023-07-02T11:45:45;6.40;;;2.55;;
76856;SDS011;69705;44.686;37.628;2023-07-02T11:48:12;7.00;;;2.00;;
76856;SDS011;69705;44.686;37.628;2023-07-02T11:50:51;5.40;;;2.05;;
76856;SDS011;69705;44.686;37.628;2023-07-02T11:53:17;5.82;;;2.28;;
76856;SDS011;69705;44.686;37.628;2023-07-02T11:55:44;6.47;;;2.30;;
76856;SDS011;69705;44.686;37.628;2023-07-02T11:58:13;6.20;;;2.22;;
76856;SDS011;69705;44.686;37.628;2023-07-02T12:00:40;6.83;;;1.90;;
76856;SDS011;69705;44.686;37.628;2023-07-02T12:03:06;6.53;;;2.03;;
76856;SDS011;69705;44.686;37.628;2023-07-02T12:05:33;6.82;;;2.15;;
76856;SDS011;69705;44.686;37.628;2023-07-02T12:08:01;5.32;;;2.13;;
76856;SDS011;69705;44.686;37.628;2023-07-02T12:10:27;6.63;;;2.05;;
76856;SDS011;69705;44.686;37.628;2023-07-02T12:12:54;5.67;;;2.10;;
76856;SDS011;69705;44.686;37.628;2023-07-02T12:15:21;7.60;;;2.20;;
76856;SDS011;69705;44.686;37.628;2023-07-02T12:17:48;15.93;;;2.33;;
76856;SDS011;69705;44.686;37.628;2023-07-02T12:20:14;5.55;;;2.10;;
76856;SDS011;69705;44.686;37.628;2023-07-02T12:22:41;6.53;;;1.95;;
76856;SDS011;69705;44.686;37.628;2023-07-02T12:25:07;7.37;;;1.90;;
76856;SDS011;69705;44.686;37.628;2023-07-02T12:27:34;5.97;;;2.08;;
76856;SDS011;69705;44.686;37.628;2023-07-02T12:30:01;7.50;;;2.10;;
76856;SDS011;69705;44.686;37.628;2023-07-02T12:32:27;6.70;;;2.00;;
76856;SDS011;69705;44.686;37.628;2023-07-02T12:34:54;5.63;;;2.03;;
76856;SDS011;69705;44.686;37.628;2023-07-02T12:37:21;6.50;;;2.20;;
76856;SDS011;69705;44.686;37.628;2023-07-02T12:39:47;6.38;;;2.10;;
76856;SDS011;69705;44.686;37.628;2023-07-02T12:42:14;8.23;;;2.22;;
76856;SDS011;69705;44.686;37.628;2023-07-02T12:44:41;6.40;;;2.00;;
76856;SDS011;69705;44.686;37.628;2023-07-02T12:47:10;5.82;;;2.00;;
76856;SDS011;69705;44.686;37.628;2023-07-02T12:49:37;6.00;;;2.10;;
76856;SDS011;69705;44.686;37.628;2023-07-02T12:52:04;5.10;;;2.00;;
76856;SDS011;69705;44.686;37.628;2023-07-02T12:54:30;5.72;;;2.35;;
76856;SDS011;69705;44.686;37.628;2023-07-02T12:57:02;5.07;;;2.13;;
76856;SDS011;69705;44.686;37.628;2023-07-02T12:59:28;6.95;;;1.95;;
76856;SDS011;69705;44.686;37.628;2023-07-02T13:01:55;8.67;;;2.10;;
76856;SDS011;69705;44.686;37.628;2023-07-02T13:04:21;6.97;;;2.30;;
76856;SDS011;69705;44.686;37.628;2023-07-02T13:06:48;6.40;;;2.17;;
76856;SDS011;69705;44.686;37.628;2023-07-02T13:09:14;5.72;;;2.40;;
76856;SDS011;69705;44.686;37.628;2023-07-02T13:11:41;5.57;;;2.10;;
76856;SDS011;69705;44.686;37.628;2023-07-02T13:14:10;4.67;;;1.93;;
76856;SDS011;69705;44.686;37.628;2023-07-02T13:16:37;6.68;;;2.10;;
76856;SDS011;69705;44.686;37.628;2023-07-02T13:19:04;6.40;;;2.15;;
76856;SDS011;69705;44.686;37.628;2023-07-02T13:21:30;6.18;;;2.08;;
76856;SDS011;69705;44.686;37.628;2023-07-02T13:23:57;5.80;;;2.00;;
76856;SDS011;69705;44.686;37.628;2023-07-02T13:26:23;5.60;;;2.07;;
76856;SDS011;69705;44.686;37.628;2023-07-02T13:28:50;7.55;;;2.30;;
76856;SDS011;69705;44.686;37.628;2023-07-02T13:31:17;8.38;;;2.53;;
76856;SDS011;69705;44.686;37.628;2023-07-02T13:33:44;6.10;;;2.20;;
76856;SDS011;69705;44.686;37.628;2023-07-02T13:36:12;6.55;;;2.15;;
76856;SDS011;69705;44.686;37.628;2023-07-02T13:38:38;8.83;;;2.50;;
76856;SDS011;69705;44.686;37.628;2023-07-02T13:41:05;8.02;;;2.10;;
76856;SDS011;69705;44.686;37.628;2023-07-02T13:43:31;4.90;;;1.90;;
76856;SDS011;69705;44.686;37.628;2023-07-02T13:45:58;6.20;;;2.10;;
76856;SDS011;69705;44.686;37.628;2023-07-02T13:48:25;7.15;;;3.83;;
76856;SDS011;69705;44.686;37.628;2023-07-02T13:50:51;6.80;;;2.40;;
76856;SDS011;69705;44.686;37.628;2023-07-02T13:53:18;7.88;;;2.50;;
76856;SDS011;69705;44.686;37.628;2023-07-02T13:55:45;8.15;;;2.55;;
76856;SDS011;69705;44.686;37.628;2023-07-02T13:58:11;5.68;;;2.25;;
76856;SDS011;69705;44.686;37.628;2023-07-02T14:00:38;5.38;;;2.10;;
76856;SDS011;69705;44.686;37.628;2023-07-02T14:03:04;7.13;;;2.00;;
76856;SDS011;69705;44.686;37.628;2023-07-02T14:05:31;6.32;;;2.20;;
76856;SDS011;69705;44.686;37.628;2023-07-02T14:07:58;5.68;;;2.10;;
76856;SDS011;69705;44.686;37.628;2023-07-02T14:10:25;8.45;;;2.03;;
76856;SDS011;69705;44.686;37.628;2023-07-02T14:12:53;5.25;;;2.20;;
76856;SDS011;69705;44.686;37.628;2023-07-02T14:15:24;6.60;;;2.00;;
76856;SDS011;69705;44.686;37.628;2023-07-02T14:17:53;8.30;;;2.20;;
76856;SDS011;69705;44.686;37.628;2023-07-02T14:20:20;6.20;;;2.25;;
76856;SDS011;69705;44.686;37.628;2023-07-02T14:22:47;6.80;;;2.17;;
76856;SDS011;69705;44.686;37.628;2023-07-02T14:25:13;5.63;;;2.20;;
76856;SDS011;69705;44.686;37.628;2023-07-02T14:27:40;6.50;;;2.10;;
76856;SDS011;69705;44.686;37.628;2023-07-02T14:30:13;6.53;;;2.25;;
76856;SDS011;69705;44.686;37.628;2023-07-02T14:32:39;6.15;;;2.15;;
76856;SDS011;69705;44.686;37.628;2023-07-02T14:35:06;5.93;;;2.30;;
76856;SDS011;69705;44.686;37.628;2023-07-02T14:37:33;5.35;;;2.15;;
76856;SDS011;69705;44.686;37.628;2023-07-02T14:40:00;6.73;;;2.30;;
76856;SDS011;69705;44.686;37.628;2023-07-02T14:42:26;6.53;;;2.10;;
76856;SDS011;69705;44.686;37.628;2023-07-02T14:44:53;5.93;;;2.10;;
76856;SDS011;69705;44.686;37.628;2023-07-02T14:47:23;6.32;;;2.30;;
76856;SDS011;69705;44.686;37.628;2023-07-02T14:49:50;6.82;;;2.40;;